createdAt,value
2023-01-20T00:01:09.927Z,100.00
2023-01-20T00:03:36.636Z,100.00
2023-01-20T00:06:03.405Z,100.00
2023-01-20T00:08:29.930Z,100.00
2023-01-20T00:10:56.639Z,100.00
2023-01-20T00:13:23.207Z,100.00
2023-01-20T00:15:49.799Z,100.00
2023-01-20T00:18:16.307Z,100.00
2023-01-20T00:20:42.993Z,100.00
2023-01-20T00:23:09.487Z,100.00
2023-01-20T00:25:36.459Z,100.00
2023-01-20T00:28:03.670Z,100.00
2023-01-20T00:30:30.211Z,100.00
2023-01-20T00:32:56.766Z,100.00
2023-01-20T00:35:23.334Z,100.00
2023-01-20T00:37:49.860Z,100.00
2023-01-20T00:40:16.561Z,100.00
2023-01-20T00:42:43.090Z,100.00
2023-01-20T00:45:09.722Z,100.00
2023-01-20T00:47:36.489Z,100.00
2023-01-20T00:50:03.102Z,100.00
2023-01-20T00:52:29.609Z,100.00
2023-01-20T00:54:56.175Z,100.00
2023-01-20T00:57:22.668Z,100.00
2023-01-20T00:59:49.181Z,100.00
2023-01-20T01:02:15.751Z,100.00
2023-01-20T01:04:42.305Z,100.00
2023-01-20T01:07:09.307Z,100.00
2023-01-20T01:09:35.943Z,100.00
2023-01-20T01:12:02.419Z,100.00
2023-01-20T01:14:30.666Z,100.00
2023-01-20T01:16:57.531Z,100.00
2023-01-20T01:19:24.089Z,100.00
2023-01-20T01:21:50.599Z,100.00
2023-01-20T01:24:17.182Z,100.00
2023-01-20T01:26:43.689Z,100.00
2023-01-20T01:29:10.214Z,100.00
2023-01-20T01:31:36.758Z,100.00
2023-01-20T01:34:03.395Z,100.00
2023-01-20T01:36:29.904Z,100.00
2023-01-20T01:38:58.850Z,100.00
2023-01-20T01:41:26.129Z,100.00
2023-01-20T01:44:06.035Z,100.00
2023-01-20T01:46:32.949Z,100.00
2023-01-20T01:49:01.355Z,100.00
2023-01-20T01:51:30.399Z,100.00
2023-01-20T01:54:00.067Z,100.00
2023-01-20T01:56:27.632Z,100.00
2023-01-20T01:58:56.009Z,100.00
2023-01-20T02:01:22.799Z,100.00
2023-01-20T02:04:01.129Z,100.00
2023-01-20T02:06:31.751Z,100.00
2023-01-20T02:08:59.290Z,100.00
2023-01-20T02:11:25.852Z,100.00
2023-01-20T02:13:52.348Z,100.00
2023-01-20T02:16:37.674Z,100.00
2023-01-20T02:19:06.908Z,100.00
2023-01-20T02:21:48.649Z,100.00
2023-01-20T02:24:15.128Z,100.00
2023-01-20T02:26:44.408Z,100.00
2023-01-20T02:29:33.832Z,100.00
2023-01-20T02:32:00.344Z,100.00
2023-01-20T02:34:59.112Z,100.00
2023-01-20T02:37:27.845Z,100.00
2023-01-20T02:39:58.822Z,100.00
2023-01-20T02:42:28.259Z,100.00
2023-01-20T02:45:03.071Z,100.00
2023-01-20T02:47:41.385Z,100.00
2023-01-20T02:50:31.854Z,100.00
2023-01-20T02:52:59.630Z,100.00
2023-01-20T02:55:46.514Z,100.00
2023-01-20T02:58:30.367Z,100.00
2023-01-20T03:00:59.955Z,100.00
2023-01-20T03:03:30.687Z,100.00
2023-01-20T03:06:00.009Z,100.00
2023-01-20T03:08:28.764Z,100.00
2023-01-20T03:10:58.103Z,100.00
2023-01-20T03:13:27.430Z,100.00
2023-01-20T03:15:57.976Z,100.00
2023-01-20T03:18:24.682Z,100.00
2023-01-20T03:20:51.632Z,100.00
2023-01-20T03:23:18.133Z,100.00
2023-01-20T03:25:45.979Z,100.00
2023-01-20T03:28:13.260Z,100.00
2023-01-20T03:30:39.843Z,100.00
2023-01-20T03:33:06.479Z,100.00
2023-01-20T03:35:34.337Z,100.00
2023-01-20T03:38:00.877Z,100.00
2023-01-20T03:40:31.727Z,100.00
2023-01-20T03:46:25.403Z,100.00
2023-01-20T03:48:58.220Z,100.00
2023-01-20T03:51:28.005Z,100.00
2023-01-20T03:53:58.346Z,100.00
2023-01-20T03:56:40.272Z,100.00
2023-01-20T03:59:09.189Z,100.00
2023-01-20T04:01:40.987Z,100.00
2023-01-20T04:04:09.992Z,100.00
2023-01-20T04:06:37.500Z,100.00
2023-01-20T04:09:09.659Z,100.00
2023-01-20T04:11:36.190Z,100.00
2023-01-20T04:14:02.978Z,100.00
2023-01-20T04:16:29.465Z,100.00
2023-01-20T04:18:56.061Z,100.00
2023-01-20T04:21:37.122Z,100.00
2023-01-20T04:24:15.625Z,100.00
2023-01-20T04:26:42.634Z,100.00
2023-01-20T04:29:12.028Z,100.00
2023-01-20T04:31:39.797Z,100.00
2023-01-20T04:34:08.223Z,100.00
2023-01-20T04:36:34.712Z,100.00
2023-01-20T04:39:01.219Z,100.00
2023-01-20T04:41:27.729Z,100.00
2023-01-20T04:43:54.299Z,100.00
2023-01-20T04:46:20.951Z,100.00
2023-01-20T04:48:47.517Z,100.00
2023-01-20T04:51:14.255Z,100.00
2023-01-20T04:53:40.858Z,100.00
2023-01-20T04:56:11.935Z,100.00
2023-01-20T04:58:38.845Z,100.00
2023-01-20T05:01:05.628Z,100.00
2023-01-20T05:03:32.180Z,100.00
2023-01-20T05:05:58.701Z,100.00
2023-01-20T05:08:25.258Z,100.00
2023-01-20T05:10:51.811Z,100.00
2023-01-20T05:13:18.668Z,100.00
2023-01-20T05:15:45.216Z,100.00
2023-01-20T05:18:11.717Z,100.00
2023-01-20T05:20:38.323Z,100.00
2023-01-20T05:23:04.991Z,100.00
2023-01-20T05:25:31.509Z,100.00
2023-01-20T05:27:58.839Z,100.00
2023-01-20T05:30:25.432Z,100.00
2023-01-20T05:32:52.291Z,100.00
2023-01-20T05:35:18.803Z,100.00
2023-01-20T05:37:45.352Z,100.00
2023-01-20T05:40:12.093Z,100.00
2023-01-20T05:42:38.621Z,100.00
2023-01-20T05:45:05.411Z,100.00
2023-01-20T05:47:31.935Z,100.00
2023-01-20T05:49:58.409Z,100.00
2023-01-20T05:52:24.921Z,100.00
2023-01-20T05:54:51.504Z,100.00
2023-01-20T05:57:18.446Z,100.00
2023-01-20T05:59:47.557Z,100.00
2023-01-20T06:02:18.741Z,100.00
2023-01-20T06:04:48.977Z,100.00
2023-01-20T06:07:16.003Z,100.00
2023-01-20T06:09:42.513Z,100.00
2023-01-20T06:12:09.099Z,100.00
2023-01-20T06:14:35.603Z,100.00
2023-01-20T06:17:02.155Z,100.00
2023-01-20T06:19:28.658Z,100.00
2023-01-20T06:21:55.205Z,100.00
2023-01-20T06:24:21.733Z,100.00
2023-01-20T06:26:50.121Z,100.00
2023-01-20T06:29:16.737Z,100.00
2023-01-20T06:31:44.527Z,100.00
2023-01-20T06:34:11.645Z,100.00
2023-01-20T06:36:38.255Z,100.00
2023-01-20T06:39:04.796Z,100.00
2023-01-20T06:41:31.314Z,100.00
2023-01-20T06:43:58.176Z,100.00
2023-01-20T06:46:24.762Z,100.00
2023-01-20T06:48:51.447Z,100.00
2023-01-20T06:51:19.670Z,100.00
2023-01-20T06:53:46.836Z,100.00
2023-01-20T06:56:13.893Z,100.00
2023-01-20T06:58:40.635Z,100.00
2023-01-20T07:01:08.970Z,100.00
2023-01-20T07:03:36.019Z,100.00
2023-01-20T07:06:04.072Z,100.00
2023-01-20T07:08:30.811Z,100.00
2023-01-20T07:10:57.548Z,100.00
2023-01-20T07:13:24.094Z,100.00
2023-01-20T07:15:50.596Z,100.00
2023-01-20T07:18:17.082Z,100.00
2023-01-20T07:20:43.933Z,100.00
2023-01-20T07:23:10.432Z,100.00
2023-01-20T07:25:38.174Z,100.00
2023-01-20T07:28:05.059Z,100.00
2023-01-20T07:30:31.639Z,100.00
2023-01-20T07:32:58.174Z,100.00
2023-01-20T07:35:24.693Z,100.00
2023-01-20T07:37:51.198Z,100.00
2023-01-20T07:40:17.932Z,100.00
2023-01-20T07:42:44.443Z,100.00
2023-01-20T07:45:11.032Z,100.00
2023-01-20T07:47:37.537Z,100.00
2023-01-20T07:50:04.235Z,100.00
2023-01-20T07:52:30.737Z,100.00
2023-01-20T07:54:57.213Z,100.00
2023-01-20T07:57:23.810Z,100.00
2023-01-20T07:59:50.314Z,100.00
2023-01-20T08:02:16.835Z,100.00
2023-01-20T08:04:43.396Z,100.00
2023-01-20T08:07:09.939Z,100.00
2023-01-20T08:09:36.455Z,100.00
2023-01-20T08:12:03.040Z,100.00
2023-01-20T08:14:29.543Z,100.00
2023-01-20T08:16:56.066Z,100.00
2023-01-20T08:19:22.579Z,100.00
2023-01-20T08:21:49.118Z,100.00
2023-01-20T08:24:15.661Z,100.00
2023-01-20T08:26:42.190Z,100.00
2023-01-20T08:29:10.161Z,100.00
2023-01-20T08:31:36.987Z,100.00
2023-01-20T08:34:03.745Z,99.67
2023-01-20T08:36:32.294Z,98.93
2023-01-20T08:38:59.741Z,98.64
2023-01-20T08:41:29.180Z,92.71
2023-01-20T08:43:55.787Z,96.00
2023-01-20T08:46:22.753Z,98.27
2023-01-20T08:48:49.978Z,95.33
2023-01-20T08:51:20.250Z,92.53
2023-01-20T08:53:46.805Z,91.92
2023-01-20T08:56:13.655Z,92.21
2023-01-20T08:58:40.599Z,97.13
2023-01-20T09:01:11.122Z,92.77
2023-01-20T09:03:37.744Z,92.61
2023-01-20T09:06:04.623Z,92.41
2023-01-20T09:08:31.177Z,91.51
2023-01-20T09:11:11.439Z,90.15
2023-01-20T09:13:38.219Z,91.92
2023-01-20T09:16:05.171Z,91.67
2023-01-20T09:18:32.419Z,93.28
2023-01-20T09:20:59.649Z,93.23
2023-01-20T09:23:26.517Z,92.10
2023-01-20T09:25:53.106Z,92.73
2023-01-20T09:28:19.660Z,91.98
2023-01-20T09:30:46.167Z,91.52
2023-01-20T09:33:12.822Z,93.85
2023-01-20T09:35:39.402Z,92.79
2023-01-20T09:38:24.589Z,93.29
2023-01-20T09:41:17.937Z,88.44
2023-01-20T09:44:00.664Z,86.45
2023-01-20T09:46:39.510Z,87.37
2023-01-20T09:49:37.035Z,85.90
2023-01-20T09:52:29.762Z,85.76
2023-01-20T09:55:10.329Z,85.38
2023-01-20T09:57:40.243Z,84.87
2023-01-20T10:00:17.415Z,84.70
2023-01-20T10:02:48.645Z,84.39
2023-01-20T10:05:18.752Z,85.42
2023-01-20T10:07:55.729Z,85.20
2023-01-20T10:10:24.979Z,85.12
2023-01-20T10:12:51.496Z,85.67
2023-01-20T10:15:37.093Z,85.46
2023-01-20T10:18:10.156Z,82.74
2023-01-20T10:20:40.899Z,84.48
2023-01-20T10:23:10.130Z,85.63
2023-01-20T10:25:44.219Z,86.01
2023-01-20T10:28:26.043Z,88.38
2023-01-20T10:30:52.714Z,83.92
2023-01-20T10:33:23.942Z,83.29
2023-01-20T10:35:52.512Z,83.75
2023-01-20T10:38:31.872Z,83.30
2023-01-20T10:41:21.556Z,87.51
2023-01-20T10:43:48.097Z,83.43
2023-01-20T10:46:17.552Z,84.18
2023-01-20T10:48:50.317Z,84.93
2023-01-20T10:51:20.569Z,84.48
2023-01-20T10:53:59.051Z,83.50
2023-01-20T10:56:51.766Z,82.50
2023-01-20T10:59:21.735Z,81.94
2023-01-20T11:01:59.402Z,84.76
2023-01-20T11:04:37.344Z,83.37
2023-01-20T11:07:08.368Z,84.72
2023-01-20T11:09:37.676Z,82.53
2023-01-20T11:12:07.334Z,82.20
2023-01-20T11:14:34.286Z,82.84
2023-01-20T11:17:04.587Z,82.53
2023-01-20T11:19:46.804Z,85.53
2023-01-20T11:22:15.049Z,84.44
2023-01-20T11:24:42.934Z,80.56
2023-01-20T11:27:24.260Z,83.18
2023-01-20T11:30:01.260Z,87.51
2023-01-20T11:32:35.210Z,82.49
2023-01-20T11:35:18.057Z,82.37
2023-01-20T11:37:44.828Z,83.74
2023-01-20T11:40:22.605Z,83.08
2023-01-20T11:42:49.641Z,83.90
2023-01-20T11:45:24.041Z,81.11
2023-01-20T11:48:00.444Z,82.49
2023-01-20T11:50:31.628Z,80.29
2023-01-20T11:53:18.474Z,81.24
2023-01-20T11:55:46.881Z,83.31
2023-01-20T11:58:17.366Z,82.76
2023-01-20T12:00:44.197Z,83.00
2023-01-20T12:03:10.743Z,79.88
2023-01-20T12:05:44.057Z,83.01
2023-01-20T12:08:14.307Z,82.03
2023-01-20T12:10:41.270Z,83.43
2023-01-20T12:13:20.061Z,82.14
2023-01-20T12:15:53.129Z,83.48
2023-01-20T12:18:50.353Z,82.72
2023-01-20T12:21:31.966Z,81.66
2023-01-20T12:24:11.684Z,83.43
2023-01-20T12:26:38.257Z,82.36
2023-01-20T12:29:19.632Z,82.31
2023-01-20T12:31:49.181Z,83.00
2023-01-20T12:34:17.639Z,83.92
2023-01-20T12:36:46.950Z,83.59
2023-01-20T12:39:36.475Z,84.06
2023-01-20T12:42:12.099Z,83.33
2023-01-20T12:44:46.248Z,85.14
2023-01-20T12:47:18.900Z,83.88
2023-01-20T12:49:54.693Z,83.20
2023-01-20T12:52:32.797Z,84.90
2023-01-20T12:55:11.673Z,84.38
2023-01-20T12:57:38.137Z,83.51
2023-01-20T13:00:11.087Z,83.16
2023-01-20T13:03:00.665Z,82.55
2023-01-20T13:05:46.055Z,83.65
2023-01-20T13:08:15.427Z,83.82
2023-01-20T13:11:01.292Z,82.62
2023-01-20T13:13:55.885Z,82.01
2023-01-20T13:16:37.055Z,84.27
2023-01-20T13:19:19.763Z,83.38
2023-01-20T13:21:59.521Z,82.17
2023-01-20T13:24:34.364Z,81.20
2023-01-20T13:27:01.816Z,83.17
2023-01-20T13:29:37.228Z,82.39
2023-01-20T13:32:04.881Z,82.05
2023-01-20T13:34:33.330Z,83.03
2023-01-20T13:37:11.917Z,81.40
2023-01-20T13:39:43.088Z,83.13
2023-01-20T13:42:28.292Z,80.18
2023-01-20T13:45:22.595Z,79.81
2023-01-20T13:47:54.300Z,80.92
2023-01-20T13:50:22.902Z,79.14
2023-01-20T13:52:52.562Z,80.78
2023-01-20T13:55:29.286Z,79.37
2023-01-20T13:57:55.848Z,80.49
2023-01-20T14:00:22.818Z,81.09
2023-01-20T14:02:50.426Z,81.31
2023-01-20T14:05:21.793Z,79.45
2023-01-20T14:07:48.325Z,79.61
2023-01-20T14:10:15.254Z,82.58
2023-01-20T14:12:41.984Z,83.05
2023-01-20T14:15:22.912Z,83.61
2023-01-20T14:17:53.314Z,80.87
2023-01-20T14:20:23.643Z,84.36
2023-01-20T14:22:50.278Z,81.85
2023-01-20T14:25:21.864Z,78.80
2023-01-20T14:27:48.353Z,82.20
2023-01-20T14:30:17.111Z,80.06
2023-01-20T14:32:43.807Z,82.34
2023-01-20T14:35:15.195Z,80.77
2023-01-20T14:37:41.842Z,85.91
2023-01-20T14:40:11.369Z,79.30
2023-01-20T14:42:41.685Z,80.17
2023-01-20T14:45:18.670Z,80.92
2023-01-20T14:47:45.577Z,79.92
2023-01-20T14:50:13.810Z,79.58
2023-01-20T14:52:40.776Z,78.91
2023-01-20T14:55:25.783Z,81.26
2023-01-20T14:57:52.505Z,80.80
2023-01-20T15:00:19.495Z,79.89
2023-01-20T15:03:05.260Z,79.55
2023-01-20T15:05:38.004Z,81.19
2023-01-20T15:08:05.637Z,79.42
2023-01-20T15:10:32.493Z,81.96
2023-01-20T15:12:59.644Z,81.36
2023-01-20T15:15:28.098Z,79.49
2023-01-20T15:18:05.143Z,80.00
2023-01-20T15:20:33.310Z,81.15
2023-01-20T15:23:00.133Z,83.54
2023-01-20T15:25:27.711Z,82.61
2023-01-20T15:27:54.805Z,86.63
2023-01-20T15:30:24.339Z,82.27
2023-01-20T15:32:51.955Z,84.02
2023-01-20T15:35:23.111Z,81.97
2023-01-20T15:37:50.131Z,81.23
2023-01-20T15:40:19.925Z,83.34
2023-01-20T15:42:47.400Z,84.19
2023-01-20T15:45:15.053Z,83.82
2023-01-20T15:47:42.282Z,82.07
2023-01-20T15:50:15.100Z,84.34
2023-01-20T15:52:41.969Z,82.38
2023-01-20T15:55:12.194Z,82.87
2023-01-20T15:57:38.701Z,86.24
2023-01-20T16:00:06.672Z,87.16
2023-01-20T16:02:33.221Z,81.68
2023-01-20T16:04:59.788Z,88.09
2023-01-20T16:07:27.978Z,85.04
2023-01-20T16:09:54.554Z,84.83
2023-01-20T16:12:21.124Z,81.65
2023-01-20T16:14:47.666Z,81.05
2023-01-20T16:17:15.639Z,83.60
2023-01-20T16:19:42.545Z,84.92
2023-01-20T16:22:10.574Z,86.42
2023-01-20T16:24:37.998Z,85.77
2023-01-20T16:27:05.308Z,82.00
2023-01-20T16:29:31.866Z,82.06
2023-01-20T16:31:58.474Z,81.28
2023-01-20T16:34:25.067Z,83.55
2023-01-20T16:36:51.580Z,82.39
2023-01-20T16:39:18.104Z,82.36
2023-01-20T16:41:47.187Z,89.04
2023-01-20T16:44:13.691Z,80.61
2023-01-20T16:46:40.249Z,82.86
2023-01-20T16:49:06.775Z,85.72
2023-01-20T16:51:33.687Z,83.17
2023-01-20T16:54:00.304Z,78.46
2023-01-20T16:56:30.638Z,82.23
2023-01-20T16:58:57.989Z,79.63
2023-01-20T17:01:25.273Z,78.65
2023-01-20T17:03:53.012Z,83.31
2023-01-20T17:06:20.748Z,78.87
2023-01-20T17:08:48.616Z,80.79
2023-01-20T17:11:25.776Z,78.69
2023-01-20T17:13:52.589Z,82.58
2023-01-20T17:16:19.755Z,78.25
2023-01-20T17:18:50.208Z,79.47
2023-01-20T17:21:17.346Z,79.87
2023-01-20T17:23:43.909Z,79.42
2023-01-20T17:26:10.453Z,77.28
2023-01-20T17:28:36.947Z,82.44
2023-01-20T17:31:04.414Z,77.68
2023-01-20T17:33:31.014Z,76.82
2023-01-20T17:36:01.581Z,77.00
2023-01-20T17:38:29.148Z,81.84
2023-01-20T17:41:00.162Z,82.94
2023-01-20T17:43:26.680Z,81.56
2023-01-20T17:45:53.195Z,77.69
2023-01-20T17:48:19.767Z,79.06
2023-01-20T17:50:46.298Z,77.93
2023-01-20T17:53:12.989Z,78.53
2023-01-20T17:55:39.484Z,78.96
2023-01-20T17:58:06.023Z,84.60
2023-01-20T18:00:32.523Z,80.09
2023-01-20T18:02:59.081Z,78.21
2023-01-20T18:05:27.057Z,84.25
2023-01-20T18:07:53.571Z,82.99
2023-01-20T18:10:20.103Z,84.43
2023-01-20T18:12:46.676Z,77.05
2023-01-20T18:15:13.259Z,79.73
2023-01-20T18:17:43.364Z,80.44
2023-01-20T18:20:11.120Z,80.68
2023-01-20T18:22:37.675Z,80.61
2023-01-20T18:25:04.285Z,76.61
2023-01-20T18:27:30.834Z,77.33
2023-01-20T18:29:57.362Z,76.24
2023-01-20T18:32:24.399Z,79.94
2023-01-20T18:34:50.963Z,75.17
2023-01-20T18:37:17.432Z,73.91
2023-01-20T18:39:44.108Z,76.81
2023-01-20T18:42:10.604Z,76.90
2023-01-20T18:44:37.119Z,77.04
2023-01-20T18:47:03.726Z,77.23
2023-01-20T18:49:30.288Z,77.34
2023-01-20T18:51:56.796Z,74.51
2023-01-20T18:54:25.199Z,74.62
2023-01-20T18:56:51.884Z,74.46
2023-01-20T18:59:18.397Z,75.35
2023-01-20T19:01:45.045Z,74.84
2023-01-20T19:04:12.504Z,81.93
2023-01-20T19:06:40.418Z,77.32
2023-01-20T19:09:07.626Z,73.78
2023-01-20T19:11:36.363Z,75.53
2023-01-20T19:14:03.304Z,77.10
2023-01-20T19:16:36.890Z,78.49
2023-01-20T19:19:04.650Z,78.45
2023-01-20T19:21:32.545Z,82.84
2023-01-20T19:24:01.401Z,78.63
2023-01-20T19:26:28.176Z,82.19
2023-01-20T19:29:05.725Z,80.45
2023-01-20T19:31:33.799Z,79.18
2023-01-20T19:34:00.753Z,77.39
2023-01-20T19:36:27.324Z,82.61
2023-01-20T19:38:54.017Z,85.24
2023-01-20T19:41:22.984Z,81.79
2023-01-20T19:43:55.439Z,84.10
2023-01-20T19:46:24.440Z,79.62
2023-01-20T19:48:51.953Z,80.07
2023-01-20T19:51:19.810Z,80.90
2023-01-20T19:53:47.101Z,82.11
2023-01-20T19:56:15.393Z,84.03
2023-01-20T19:58:42.482Z,77.98
2023-01-20T20:01:14.141Z,82.37
2023-01-20T20:03:40.672Z,87.71
2023-01-20T20:06:07.996Z,85.19
2023-01-20T20:08:36.317Z,89.46
2023-01-20T20:11:03.033Z,87.54
2023-01-20T20:13:29.559Z,89.61
2023-01-20T20:16:02.638Z,84.08
2023-01-20T20:18:29.201Z,80.44
2023-01-20T20:20:55.741Z,81.78
2023-01-20T20:23:22.560Z,77.95
2023-01-20T20:25:49.874Z,85.62
2023-01-20T20:28:16.421Z,90.49
2023-01-20T20:30:43.274Z,87.10
2023-01-20T20:33:09.783Z,92.02
2023-01-20T20:35:36.780Z,93.98
2023-01-20T20:38:03.840Z,95.03
2023-01-20T20:40:30.555Z,95.63
2023-01-20T20:42:57.142Z,94.99
2023-01-20T20:45:23.668Z,88.05
2023-01-20T20:47:50.159Z,93.98
2023-01-20T20:50:17.176Z,93.08
2023-01-20T20:52:46.239Z,93.87
2023-01-20T20:55:13.065Z,95.70
2023-01-20T20:57:39.684Z,93.56
2023-01-20T21:00:06.605Z,94.98
2023-01-20T21:02:33.832Z,93.16
2023-01-20T21:05:00.444Z,93.21
2023-01-20T21:07:26.957Z,96.18
2023-01-20T21:09:53.516Z,95.04
2023-01-20T21:12:20.055Z,95.79
2023-01-20T21:14:46.528Z,93.17
2023-01-20T21:17:13.103Z,90.36
2023-01-20T21:19:39.698Z,90.91
2023-01-20T21:22:06.282Z,84.56
2023-01-20T21:24:32.854Z,80.68
2023-01-20T21:27:00.580Z,84.78
2023-01-20T21:29:27.681Z,83.97
2023-01-20T21:31:54.339Z,84.47
2023-01-20T21:34:20.920Z,79.06
2023-01-20T21:36:47.423Z,78.40
2023-01-20T21:39:15.209Z,84.54
2023-01-20T21:41:42.199Z,85.38
2023-01-20T21:44:32.976Z,90.29
2023-01-20T21:47:00.934Z,89.83
2023-01-20T21:49:46.475Z,92.37
2023-01-20T21:52:33.094Z,86.89
2023-01-20T21:54:59.699Z,89.59
2023-01-20T21:57:26.295Z,82.64
2023-01-20T21:59:52.828Z,81.32
2023-01-20T22:02:19.489Z,79.75
2023-01-20T22:04:46.276Z,82.03
2023-01-20T22:07:13.506Z,88.53
2023-01-20T22:09:40.096Z,91.66
2023-01-20T22:12:07.141Z,88.29
2023-01-20T22:14:33.652Z,90.29
2023-01-20T22:17:00.276Z,86.05
2023-01-20T22:19:27.192Z,84.74
2023-01-20T22:21:56.907Z,83.00
2023-01-20T22:24:23.552Z,84.95
2023-01-20T22:26:50.070Z,84.82
2023-01-20T22:29:17.565Z,87.92
2023-01-20T22:31:44.668Z,80.02
2023-01-20T22:34:11.403Z,76.00
2023-01-20T22:36:37.968Z,81.94
2023-01-20T22:39:06.153Z,86.15
2023-01-20T22:41:32.666Z,82.80
2023-01-20T22:43:59.382Z,82.19
2023-01-20T22:46:27.166Z,86.86
2023-01-20T22:48:55.347Z,90.27
2023-01-20T22:51:22.657Z,89.88
2023-01-20T22:53:49.657Z,77.75
2023-01-20T22:56:18.314Z,78.51
2023-01-20T22:58:45.218Z,80.15
2023-01-20T23:01:22.317Z,83.97
2023-01-20T23:03:53.043Z,85.38
2023-01-20T23:06:19.662Z,87.18
2023-01-20T23:08:46.131Z,88.29
2023-01-20T23:11:14.219Z,81.66
2023-01-20T23:13:40.991Z,83.18
2023-01-20T23:16:10.062Z,88.83
2023-01-20T23:18:36.861Z,92.48
2023-01-20T23:21:06.024Z,84.20
2023-01-20T23:23:32.922Z,84.43
2023-01-20T23:26:12.466Z,87.34
2023-01-20T23:28:38.963Z,85.02
2023-01-20T23:31:06.860Z,88.69
2023-01-20T23:33:33.679Z,84.34
2023-01-20T23:36:04.303Z,88.30
2023-01-20T23:38:31.216Z,91.02
2023-01-20T23:40:58.153Z,83.16
2023-01-20T23:43:24.648Z,82.45
2023-01-20T23:45:51.244Z,82.62
2023-01-20T23:48:18.168Z,84.63
2023-01-20T23:50:45.735Z,76.42
2023-01-20T23:53:14.537Z,85.53
2023-01-20T23:55:41.026Z,86.24
2023-01-20T23:58:07.506Z,83.67
